createdAt,value
2022-11-05T00:02:08.047Z,10.00
2022-11-05T00:04:53.355Z,8.50
2022-11-05T00:07:40.314Z,8.73
2022-11-05T00:10:15.632Z,8.20
2022-11-05T00:13:00.848Z,8.45
2022-11-05T00:15:46.456Z,9.13
2022-11-05T00:18:14.185Z,8.82
2022-11-05T00:20:41.858Z,9.27
2022-11-05T00:23:26.820Z,8.27
2022-11-05T00:25:57.388Z,9.68
2022-11-05T00:28:25.299Z,8.30
2022-11-05T00:30:53.405Z,8.68
2022-11-05T00:33:21.306Z,8.70
2022-11-05T00:35:48.965Z,9.05
2022-11-05T00:38:16.636Z,9.52
2022-11-05T00:40:44.334Z,8.85
2022-11-05T00:43:33.766Z,8.93
2022-11-05T00:46:01.639Z,8.80
2022-11-05T00:48:46.758Z,9.93
2022-11-05T00:51:14.434Z,8.27
2022-11-05T00:53:42.230Z,8.27
2022-11-05T00:56:10.109Z,8.65
2022-11-05T00:58:39.266Z,9.35
2022-11-05T01:01:07.178Z,9.45
2022-11-05T01:03:36.663Z,9.48
2022-11-05T01:06:08.183Z,9.52
2022-11-05T01:08:35.882Z,8.57
2022-11-05T01:11:10.441Z,11.45
2022-11-05T01:13:40.623Z,8.88
2022-11-05T01:16:09.876Z,10.07
2022-11-05T01:18:38.754Z,9.05
2022-11-05T01:21:13.865Z,9.65
2022-11-05T01:23:41.527Z,9.90
2022-11-05T01:26:09.198Z,9.23
2022-11-05T01:28:36.892Z,10.30
2022-11-05T01:31:06.215Z,8.95
2022-11-05T01:33:33.916Z,9.25
2022-11-05T01:36:04.237Z,9.65
2022-11-05T01:38:31.982Z,9.65
2022-11-05T01:40:59.641Z,9.48
2022-11-05T01:43:27.303Z,9.55
2022-11-05T01:45:58.526Z,9.30
2022-11-05T01:48:31.475Z,6.93
2022-11-05T01:51:00.297Z,8.93
2022-11-05T01:53:30.904Z,8.73
2022-11-05T01:56:01.875Z,9.05
2022-11-05T01:58:32.511Z,9.73
2022-11-05T02:01:00.277Z,9.88
2022-11-05T02:03:29.687Z,8.80
2022-11-05T02:05:58.620Z,9.25
2022-11-05T02:08:42.553Z,9.73
2022-11-05T02:11:10.315Z,9.38
2022-11-05T02:13:38.191Z,8.63
2022-11-05T02:16:12.275Z,10.05
2022-11-05T02:18:49.126Z,8.85
2022-11-05T02:21:32.669Z,9.13
2022-11-05T02:24:18.565Z,9.55
2022-11-05T02:27:10.528Z,11.13
2022-11-05T02:29:57.420Z,10.57
2022-11-05T02:32:36.772Z,9.73
2022-11-05T02:35:11.222Z,10.05
2022-11-05T02:37:40.931Z,10.63
2022-11-05T02:40:14.902Z,9.40
2022-11-05T02:42:45.904Z,13.43
2022-11-05T02:45:22.575Z,10.07
2022-11-05T02:47:53.801Z,9.77
2022-11-05T02:50:26.284Z,10.80
2022-11-05T02:53:00.540Z,9.02
2022-11-05T02:55:32.374Z,9.25
2022-11-05T02:58:00.640Z,11.05
2022-11-05T03:00:42.199Z,9.35
2022-11-05T03:03:19.001Z,7.10
2022-11-05T03:05:56.144Z,10.65
2022-11-05T03:08:33.431Z,9.88
2022-11-05T03:11:03.966Z,10.05
2022-11-05T03:13:35.179Z,10.68
2022-11-05T03:16:07.957Z,9.83
2022-11-05T03:18:42.267Z,10.38
2022-11-05T03:21:12.875Z,10.45
2022-11-05T03:23:46.657Z,10.68
2022-11-05T03:26:19.030Z,9.52
2022-11-05T03:28:49.331Z,10.10
2022-11-05T03:31:17.859Z,10.05
2022-11-05T03:33:47.902Z,9.77
2022-11-05T03:36:19.475Z,11.07
2022-11-05T03:38:50.935Z,10.85
2022-11-05T03:41:18.682Z,10.10
2022-11-05T03:43:48.316Z,11.35
2022-11-05T03:46:19.322Z,10.98
2022-11-05T03:48:50.488Z,10.32
2022-11-05T03:51:22.073Z,11.33
2022-11-05T03:53:51.816Z,10.45
2022-11-05T03:56:23.872Z,12.88
2022-11-05T03:58:57.557Z,10.27
2022-11-05T04:01:26.674Z,10.70
2022-11-05T04:03:55.852Z,11.75
2022-11-05T04:06:41.309Z,10.60
2022-11-05T04:09:27.125Z,11.55
2022-11-05T04:12:12.362Z,9.98
2022-11-05T04:14:40.260Z,10.07
2022-11-05T04:17:06.925Z,11.73
2022-11-05T04:19:54.119Z,11.27
2022-11-05T04:22:39.536Z,11.50
2022-11-05T04:25:07.562Z,11.38
2022-11-05T04:27:35.359Z,11.40
2022-11-05T04:30:20.789Z,12.50
2022-11-05T04:33:02.967Z,11.25
2022-11-05T04:35:33.662Z,12.20
2022-11-05T04:38:01.435Z,14.45
2022-11-05T04:40:29.617Z,11.88
2022-11-05T04:42:58.369Z,11.70
2022-11-05T04:45:27.360Z,11.25
2022-11-05T04:47:55.047Z,14.00
2022-11-05T04:50:23.137Z,12.10
2022-11-05T04:52:52.230Z,11.73
2022-11-05T04:55:21.761Z,11.50
2022-11-05T04:57:50.430Z,12.07
2022-11-05T05:00:19.559Z,12.27
2022-11-05T05:02:47.634Z,11.65
2022-11-05T05:05:15.618Z,10.88
2022-11-05T05:07:43.512Z,11.25
2022-11-05T05:10:13.328Z,12.05
2022-11-05T05:12:41.013Z,11.45
2022-11-05T05:15:09.300Z,11.95
2022-11-05T05:17:36.923Z,12.40
2022-11-05T05:20:22.164Z,12.27
2022-11-05T05:22:52.989Z,11.15
2022-11-05T05:25:22.801Z,11.95
2022-11-05T05:27:50.466Z,14.90
2022-11-05T05:30:18.316Z,11.70
2022-11-05T05:32:45.984Z,12.98
2022-11-05T05:35:13.675Z,11.82
2022-11-05T05:37:41.292Z,11.98
2022-11-05T05:40:10.105Z,12.88
2022-11-05T05:42:43.219Z,13.15
2022-11-05T05:45:12.313Z,12.63
2022-11-05T05:47:39.969Z,13.65
2022-11-05T05:50:08.235Z,13.38
2022-11-05T05:52:35.871Z,12.68
2022-11-05T05:55:03.553Z,14.23
2022-11-05T05:57:31.246Z,13.40
2022-11-05T06:00:01.848Z,12.63
2022-11-05T06:02:31.336Z,13.40
2022-11-05T06:04:59.148Z,13.30
2022-11-05T06:07:26.790Z,13.23
2022-11-05T06:09:54.460Z,12.85
2022-11-05T06:12:22.135Z,15.13
2022-11-05T06:14:49.794Z,15.23
2022-11-05T06:17:18.853Z,13.27
2022-11-05T06:19:46.485Z,13.70
2022-11-05T06:22:14.137Z,14.27
2022-11-05T06:24:41.845Z,15.13
2022-11-05T06:27:09.655Z,14.75
2022-11-05T06:29:37.315Z,14.60
2022-11-05T06:32:05.188Z,14.43
2022-11-05T06:34:34.249Z,14.02
2022-11-05T06:37:01.958Z,13.88
2022-11-05T06:39:29.636Z,15.30
2022-11-05T06:42:17.127Z,13.05
2022-11-05T06:44:45.071Z,14.02
2022-11-05T06:47:12.888Z,15.00
2022-11-05T06:49:41.947Z,14.48
2022-11-05T06:52:09.775Z,14.50
2022-11-05T06:54:37.460Z,14.80
2022-11-05T06:57:06.195Z,15.20
2022-11-05T06:59:34.401Z,15.68
2022-11-05T07:02:02.237Z,14.40
2022-11-05T07:04:29.943Z,16.60
2022-11-05T07:06:59.891Z,14.50
2022-11-05T07:09:27.677Z,13.88
2022-11-05T07:11:55.764Z,18.77
2022-11-05T07:14:23.644Z,16.92
2022-11-05T07:16:51.356Z,17.13
2022-11-05T07:19:19.112Z,15.75
2022-11-05T07:21:48.689Z,17.88
2022-11-05T07:24:17.855Z,13.98
2022-11-05T07:26:45.516Z,14.73
2022-11-05T07:29:13.147Z,12.13
2022-11-05T07:31:40.846Z,12.10
2022-11-05T07:34:08.540Z,11.73
2022-11-05T07:36:39.404Z,11.80
2022-11-05T07:39:07.275Z,13.25
2022-11-05T07:41:36.371Z,11.50
2022-11-05T07:44:04.504Z,12.27
2022-11-05T07:46:32.241Z,12.13
2022-11-05T07:48:59.940Z,12.45
2022-11-05T07:51:27.585Z,12.07
2022-11-05T07:53:55.251Z,10.85
2022-11-05T07:56:23.220Z,12.02
2022-11-05T07:58:52.264Z,14.40
2022-11-05T08:01:20.020Z,14.63
2022-11-05T08:03:48.031Z,12.32
2022-11-05T08:06:15.850Z,11.68
2022-11-05T08:08:43.625Z,13.73
2022-11-05T08:11:12.570Z,11.95
2022-11-05T08:13:40.408Z,10.95
2022-11-05T08:16:10.822Z,10.30
2022-11-05T08:18:39.633Z,10.98
2022-11-05T08:21:08.893Z,10.27
2022-11-05T08:23:36.801Z,9.95
2022-11-05T08:26:05.173Z,10.18
2022-11-05T08:28:33.008Z,10.10
2022-11-05T08:31:00.804Z,10.98
2022-11-05T08:33:31.367Z,18.55
2022-11-05T08:36:03.308Z,12.73
2022-11-05T08:38:31.115Z,23.38
2022-11-05T08:40:59.610Z,11.57
2022-11-05T08:43:27.341Z,12.10
2022-11-05T08:45:55.355Z,11.20
2022-11-05T08:48:23.205Z,12.48
2022-11-05T08:50:52.306Z,18.02
2022-11-05T08:53:21.366Z,15.43
2022-11-05T08:55:51.037Z,10.63
2022-11-05T08:58:20.857Z,10.10
2022-11-05T09:00:49.783Z,9.82
2022-11-05T09:03:17.966Z,10.15
2022-11-05T09:05:45.955Z,11.35
2022-11-05T09:08:16.637Z,10.90
2022-11-05T09:10:44.956Z,9.32
2022-11-05T09:13:18.274Z,10.38
2022-11-05T09:15:47.022Z,9.73
2022-11-05T09:18:15.485Z,10.30
2022-11-05T09:20:43.534Z,10.45
2022-11-05T09:23:12.513Z,9.32
2022-11-05T09:25:41.934Z,10.23
2022-11-05T09:28:15.925Z,10.35
2022-11-05T09:30:45.139Z,10.38
2022-11-05T09:33:13.283Z,9.80
2022-11-05T09:35:41.785Z,10.65
2022-11-05T09:38:09.593Z,11.60
2022-11-05T09:40:38.907Z,10.07
2022-11-05T09:43:08.390Z,10.02
2022-11-05T09:45:37.159Z,9.63
2022-11-05T09:48:09.007Z,10.05
2022-11-05T09:50:40.195Z,9.63
2022-11-05T09:53:08.160Z,9.93
2022-11-05T09:55:39.044Z,9.60
2022-11-05T12:37:50.660Z,7.57
2022-11-05T12:40:38.230Z,7.65
2022-11-05T12:43:13.508Z,7.75
2022-11-05T12:45:47.061Z,7.82
2022-11-05T12:48:37.049Z,7.78
2022-11-05T12:51:14.031Z,7.82
2022-11-05T12:53:54.535Z,7.50
2022-11-05T12:56:34.268Z,7.88
2022-11-05T12:59:04.677Z,8.15
2022-11-05T13:01:36.678Z,8.45
2022-11-05T13:04:08.886Z,8.10
2022-11-05T13:09:09.388Z,8.32
2022-11-05T13:11:41.955Z,8.30
2022-11-05T13:14:12.989Z,8.30
2022-11-05T13:16:44.628Z,8.65
2022-11-05T13:19:17.991Z,8.80
2022-11-05T13:21:49.605Z,8.60
2022-11-05T13:24:22.062Z,8.23
2022-11-05T13:26:54.038Z,8.68
2022-11-05T13:29:26.720Z,9.50
2022-11-05T13:31:57.931Z,9.00
2022-11-05T13:34:25.665Z,8.85
2022-11-05T13:37:13.994Z,9.02
2022-11-05T13:39:48.330Z,9.57
2022-11-05T13:42:42.882Z,8.68
2022-11-05T13:45:39.639Z,9.23
2022-11-05T13:48:33.300Z,9.45
2022-11-05T13:51:34.801Z,8.45
2022-11-05T13:54:37.198Z,9.57
2022-11-05T13:57:23.360Z,10.00
2022-11-05T14:00:03.360Z,9.60
2022-11-05T14:02:38.660Z,10.02
2022-11-05T14:05:07.449Z,10.70
2022-11-05T14:07:37.423Z,10.77
2022-11-05T14:10:11.100Z,12.75
2022-11-05T14:12:40.911Z,10.15
2022-11-05T14:15:18.202Z,11.70
2022-11-05T14:17:58.692Z,11.43
2022-11-05T14:20:45.878Z,12.90
2022-11-05T14:23:38.615Z,11.18
2022-11-05T14:26:14.956Z,11.63
2022-11-05T14:28:46.746Z,10.70
2022-11-05T14:31:47.480Z,11.43
2022-11-05T14:34:23.974Z,11.10
2022-11-05T14:37:19.120Z,11.52
2022-11-05T14:39:47.938Z,11.15
2022-11-05T14:42:18.466Z,11.57
2022-11-05T14:45:06.772Z,11.88
2022-11-05T14:47:36.820Z,12.30
2022-11-05T14:50:11.606Z,11.82
2022-11-05T14:52:40.185Z,11.27
2022-11-05T14:55:10.760Z,11.40
2022-11-05T14:58:18.164Z,11.70
2022-11-05T15:00:49.656Z,11.32
2022-11-05T15:04:02.131Z,11.85
2022-11-05T15:06:34.842Z,12.20
2022-11-05T15:09:13.556Z,12.20
2022-11-05T15:11:44.888Z,11.40
2022-11-05T15:14:21.888Z,12.07
2022-11-05T15:16:53.943Z,12.45
2022-11-05T15:19:25.929Z,11.82
2022-11-05T15:21:55.399Z,12.90
2022-11-05T15:24:23.394Z,13.55
2022-11-05T15:26:59.234Z,13.25
2022-11-05T15:29:30.414Z,14.23
2022-11-05T15:32:00.035Z,14.70
2022-11-05T15:34:30.910Z,14.13
2022-11-05T15:37:01.196Z,12.95
2022-11-05T15:39:32.254Z,12.85
2022-11-05T15:42:02.317Z,12.93
2022-11-05T15:44:32.016Z,13.07
2022-11-05T15:47:08.926Z,13.02
2022-11-05T15:49:36.918Z,13.30
2022-11-05T15:52:05.211Z,15.95
2022-11-05T15:54:33.467Z,15.20
2022-11-05T15:57:01.723Z,15.52
2022-11-05T15:59:30.931Z,14.65
2022-11-05T16:02:15.982Z,14.48
2022-11-05T16:04:48.191Z,13.15
2022-11-05T16:09:50.945Z,13.27
2022-11-05T16:12:29.243Z,12.15
2022-11-05T16:14:58.290Z,12.27
2022-11-05T16:17:27.884Z,11.30
2022-11-05T16:19:59.032Z,11.52
2022-11-05T16:22:28.338Z,11.10
2022-11-05T16:24:57.406Z,10.73
2022-11-05T16:27:26.452Z,13.07
2022-11-05T16:29:56.659Z,12.85
2022-11-05T16:32:30.659Z,12.90
2022-11-05T16:35:03.002Z,12.10
2022-11-05T16:37:37.323Z,12.77
2022-11-05T16:40:15.264Z,13.13
2022-11-05T16:42:44.408Z,13.38
2022-11-05T16:45:14.925Z,13.40
2022-11-05T16:47:44.040Z,12.00
2022-11-05T16:50:20.529Z,12.65
2022-11-05T16:52:48.596Z,12.30
2022-11-05T16:55:17.797Z,12.35
2022-11-05T16:57:47.083Z,15.65
2022-11-05T17:00:17.710Z,13.80
2022-11-05T17:02:46.051Z,12.65
2022-11-05T17:05:21.134Z,13.52
2022-11-05T17:07:49.068Z,14.55
2022-11-05T17:10:17.296Z,13.98
2022-11-05T17:12:45.413Z,11.13
2022-11-05T17:15:21.550Z,13.20
2022-11-05T17:17:49.741Z,15.73
2022-11-05T17:20:36.536Z,13.77
2022-11-05T17:23:07.483Z,14.93
2022-11-05T17:25:35.295Z,14.82
2022-11-05T17:28:03.523Z,16.23
2022-11-05T17:30:31.631Z,15.55
2022-11-05T17:32:59.819Z,18.00
2022-11-05T17:35:29.116Z,17.85
2022-11-05T17:37:56.932Z,16.85
2022-11-05T17:40:25.213Z,15.05
2022-11-05T17:42:53.529Z,14.52
2022-11-05T17:45:21.359Z,15.73
2022-11-05T17:47:49.217Z,18.13
2022-11-05T17:50:19.064Z,24.10
2022-11-05T17:52:48.388Z,25.35
2022-11-05T17:55:19.093Z,15.48
2022-11-05T17:57:48.658Z,19.10
2022-11-05T18:00:18.457Z,18.90
2022-11-05T18:02:48.445Z,14.70
2022-11-05T18:05:16.828Z,13.00
2022-11-05T18:07:44.853Z,13.07
2022-11-05T18:10:14.510Z,12.55
2022-11-05T18:12:43.043Z,12.68
2022-11-05T18:15:11.456Z,12.57
2022-11-05T18:17:39.314Z,14.07
2022-11-05T18:20:12.969Z,14.52
2022-11-05T18:22:45.705Z,13.15
2022-11-05T18:25:14.894Z,13.52
2022-11-05T18:27:43.207Z,15.30
2022-11-05T18:30:14.161Z,15.55
2022-11-05T18:32:42.057Z,15.73
2022-11-05T18:35:10.601Z,16.25
2022-11-05T18:37:39.024Z,15.63
2022-11-05T18:40:08.574Z,15.27
2022-11-05T18:42:37.845Z,15.23
2022-11-05T18:45:06.868Z,16.25
2022-11-05T18:47:34.951Z,15.23
2022-11-05T18:50:03.310Z,15.85
2022-11-05T18:52:31.939Z,16.50
2022-11-05T18:54:59.876Z,16.25
2022-11-05T18:57:27.915Z,19.15
2022-11-05T18:59:56.987Z,16.58
2022-11-05T19:02:24.765Z,19.40
2022-11-05T19:05:14.414Z,19.63
2022-11-05T19:07:40.506Z,18.13
2022-11-05T19:10:09.471Z,18.88
2022-11-05T19:12:37.112Z,16.92
2022-11-05T19:15:08.018Z,21.30
2022-11-05T19:17:36.479Z,15.35
2022-11-05T19:20:05.311Z,32.97
2022-11-05T19:22:33.046Z,29.73
2022-11-05T19:25:00.787Z,29.02
2022-11-05T19:27:28.570Z,25.27
2022-11-05T19:29:56.256Z,23.80
2022-11-05T19:32:25.263Z,21.30
2022-11-05T19:34:53.013Z,22.23
2022-11-05T19:37:20.617Z,19.25
2022-11-05T19:39:48.250Z,24.83
2022-11-05T19:42:15.920Z,24.48
2022-11-05T19:44:44.160Z,24.38
2022-11-05T19:47:11.805Z,23.20
2022-11-05T19:49:40.837Z,19.13
2022-11-05T19:52:08.499Z,23.75
2022-11-05T19:54:36.503Z,21.33
2022-11-05T19:57:04.261Z,24.75
2022-11-05T19:59:31.977Z,22.45
2022-11-05T20:01:59.942Z,20.52
2022-11-05T20:04:27.833Z,23.38
2022-11-05T20:06:56.931Z,17.60
2022-11-05T20:09:24.884Z,17.65
2022-11-05T20:11:54.313Z,17.23
2022-11-05T20:14:22.264Z,16.05
2022-11-05T20:16:50.412Z,17.95
2022-11-05T20:19:20.168Z,18.92
2022-11-05T20:21:47.866Z,25.02
2022-11-05T20:24:24.110Z,22.63
2022-11-05T20:26:52.741Z,27.95
2022-11-05T20:29:20.414Z,25.85
2022-11-05T20:31:48.484Z,24.42
2022-11-05T20:34:16.338Z,22.98
2022-11-05T20:36:43.995Z,22.40
2022-11-05T20:39:12.037Z,20.45
2022-11-05T20:41:41.168Z,25.88
2022-11-05T20:44:08.933Z,25.63
2022-11-05T20:46:36.633Z,19.52
2022-11-05T20:49:04.446Z,18.17
2022-11-05T20:51:32.135Z,18.15
2022-11-05T20:54:02.208Z,18.83
2022-11-05T20:56:31.735Z,16.60
2022-11-05T20:59:01.115Z,15.93
2022-11-05T21:01:30.629Z,19.70
2022-11-05T21:03:59.608Z,18.75
2022-11-05T21:06:27.469Z,19.35
2022-11-05T21:08:55.377Z,17.17
2022-11-05T21:11:23.157Z,18.10
2022-11-05T21:13:51.045Z,18.25
2022-11-05T21:16:20.653Z,16.23
2022-11-05T21:18:48.746Z,18.73
2022-11-05T21:21:19.616Z,15.73
2022-11-05T21:23:47.594Z,20.50
2022-11-05T21:26:16.805Z,20.17
2022-11-05T21:28:44.670Z,20.48
2022-11-05T21:31:12.574Z,20.20
2022-11-05T21:33:41.769Z,15.27
2022-11-05T21:36:11.888Z,15.65
2022-11-05T21:38:40.482Z,16.35
2022-11-05T21:41:08.846Z,22.25
2022-11-05T21:43:36.815Z,18.77
2022-11-05T21:46:05.621Z,19.02
2022-11-05T21:48:33.985Z,18.50
2022-11-05T21:51:20.621Z,15.95
2022-11-05T21:54:05.991Z,18.38
2022-11-05T21:56:51.502Z,24.05
2022-11-05T21:59:38.715Z,22.15
2022-11-05T22:02:07.562Z,21.25
2022-11-05T22:04:36.550Z,18.75
2022-11-05T22:07:06.990Z,16.63
2022-11-05T22:09:34.941Z,14.57
2022-11-05T22:12:02.937Z,14.45
2022-11-05T22:14:31.130Z,15.55
2022-11-05T22:16:59.493Z,13.57
2022-11-05T22:19:27.406Z,14.80
2022-11-05T22:21:55.104Z,14.43
2022-11-05T22:24:24.891Z,13.70
2022-11-05T22:26:52.652Z,15.15
2022-11-05T22:29:20.629Z,13.70
2022-11-05T22:31:48.321Z,16.90
2022-11-05T22:34:16.533Z,15.50
2022-11-05T22:36:44.212Z,17.40
2022-11-05T22:39:12.987Z,17.15
2022-11-05T22:41:42.170Z,17.75
2022-11-05T22:44:10.665Z,15.60
2022-11-05T22:46:39.479Z,16.45
2022-11-05T22:49:07.503Z,13.88
2022-11-05T22:51:36.544Z,14.75
2022-11-05T22:54:05.070Z,18.15
2022-11-05T22:56:34.311Z,21.98
2022-11-05T22:59:04.185Z,17.15
2022-11-05T23:01:32.122Z,18.73
2022-11-05T23:04:00.342Z,19.52
2022-11-05T23:06:47.166Z,19.83
2022-11-05T23:09:34.960Z,17.83
2022-11-05T23:12:04.142Z,14.10
2022-11-05T23:14:33.190Z,14.25
2022-11-05T23:17:18.478Z,13.95
2022-11-05T23:20:03.794Z,13.50
2022-11-05T23:22:50.178Z,15.07
2022-11-05T23:25:20.232Z,19.25
2022-11-05T23:27:49.512Z,20.60
2022-11-05T23:30:20.263Z,25.23
2022-11-05T23:32:47.152Z,17.83
2022-11-05T23:35:15.470Z,17.70
2022-11-05T23:38:00.568Z,111.53
2022-11-05T23:40:29.843Z,28.65
2022-11-05T23:43:15.751Z,16.55
2022-11-05T23:46:03.099Z,17.88
2022-11-05T23:48:33.274Z,20.75
2022-11-05T23:51:02.376Z,53.15
2022-11-05T23:53:31.322Z,85.40
2022-11-05T23:56:01.328Z,46.47
2022-11-05T23:58:29.288Z,50.03
